sensor_id;sensor_type;location;lat;lon;timestamp;P1;P2;P0
45871;PMS5003;32333;55.844;-3.210;2022-11-20T00:02:27;0;0;
45871;PMS5003;32333;55.844;-3.210;2022-11-20T00:05:07;1;1;
45871;PMS5003;32333;55.844;-3.210;2022-11-20T00:09:34;0;0;
45871;PMS5003;32333;55.844;-3.210;2022-11-20T00:14:35;0;0;
45871;PMS5003;32333;55.844;-3.210;2022-11-20T00:17:04;0;0;
45871;PMS5003;32333;55.844;-3.210;2022-11-20T00:19:34;0;0;
45871;PMS5003;32333;55.844;-3.210;2022-11-20T00:22:07;0;0;
45871;PMS5003;32333;55.844;-3.210;2022-11-20T00:24:34;0;0;
45871;PMS5003;32333;55.844;-3.210;2022-11-20T00:27:02;0;0;
45871;PMS5003;32333;55.844;-3.210;2022-11-20T00:29:31;0;0;
45871;PMS5003;32333;55.844;-3.210;2022-11-20T00:31:58;0;0;
45871;PMS5003;32333;55.844;-3.210;2022-11-20T00:34:30;0;0;
45871;PMS5003;32333;55.844;-3.210;2022-11-20T00:36:58;4;4;
45871;PMS5003;32333;55.844;-3.210;2022-11-20T00:39:26;0;0;
45871;PMS5003;32333;55.844;-3.210;2022-11-20T00:41:55;3;1;
45871;PMS5003;32333;55.844;-3.210;2022-11-20T00:44:35;0;0;
45871;PMS5003;32333;55.844;-3.210;2022-11-20T00:47:03;0;0;
45871;PMS5003;32333;55.844;-3.210;2022-11-20T00:49:31;0;0;
45871;PMS5003;32333;55.844;-3.210;2022-11-20T00:51:59;1;1;
45871;PMS5003;32333;55.844;-3.210;2022-11-20T00:54:28;0;0;
45871;PMS5003;32333;55.844;-3.210;2022-11-20T00:56:56;1;0;
45871;PMS5003;32333;55.844;-3.210;2022-11-20T00:59:30;1;1;
45871;PMS5003;32333;55.844;-3.210;2022-11-20T01:02:01;0;0;
45871;PMS5003;32333;55.844;-3.210;2022-11-20T01:05:04;0;0;
45871;PMS5003;32333;55.844;-3.210;2022-11-20T01:07:39;0;0;
45871;PMS5003;32333;55.844;-3.210;2022-11-20T01:10:08;0;0;
45871;PMS5003;32333;55.844;-3.210;2022-11-20T01:14:36;0;0;
45871;PMS5003;32333;55.844;-3.210;2022-11-20T01:17:08;0;0;
45871;PMS5003;32333;55.844;-3.210;2022-11-20T01:19:39;3;0;
45871;PMS5003;32333;55.844;-3.210;2022-11-20T01:22:36;0;0;
45871;PMS5003;32333;55.844;-3.210;2022-11-20T01:25:06;0;0;
45871;PMS5003;32333;55.844;-3.210;2022-11-20T01:27:34;0;0;
45871;PMS5003;32333;55.844;-3.210;2022-11-20T01:30:06;0;0;
45871;PMS5003;32333;55.844;-3.210;2022-11-20T01:32:36;0;0;
45871;PMS5003;32333;55.844;-3.210;2022-11-20T01:35:03;1;1;
45871;PMS5003;32333;55.844;-3.210;2022-11-20T01:37:31;0;0;
45871;PMS5003;32333;55.844;-3.210;2022-11-20T01:40:00;0;0;
45871;PMS5003;32333;55.844;-3.210;2022-11-20T01:44:53;0;0;
45871;PMS5003;32333;55.844;-3.210;2022-11-20T01:47:25;0;0;
45871;PMS5003;32333;55.844;-3.210;2022-11-20T01:49:58;0;0;
45871;PMS5003;32333;55.844;-3.210;2022-11-20T01:52:32;0;0;
45871;PMS5003;32333;55.844;-3.210;2022-11-20T02:05:53;0;0;
45871;PMS5003;32333;55.844;-3.210;2022-11-20T02:09:14;0;0;
45871;PMS5003;32333;55.844;-3.210;2022-11-20T02:15:27;0;0;
45871;PMS5003;32333;55.844;-3.210;2022-11-20T02:18:13;0;0;
45871;PMS5003;32333;55.844;-3.210;2022-11-20T02:21:55;0;0;
45871;PMS5003;32333;55.844;-3.210;2022-11-20T02:24:28;0;0;
45871;PMS5003;32333;55.844;-3.210;2022-11-20T02:26:56;0;0;
45871;PMS5003;32333;55.844;-3.210;2022-11-20T02:29:27;0;0;
45871;PMS5003;32333;55.844;-3.210;2022-11-20T02:32:03;3;3;
45871;PMS5003;32333;55.844;-3.210;2022-11-20T02:34:31;0;0;
45871;PMS5003;32333;55.844;-3.210;2022-11-20T02:37:00;0;0;
45871;PMS5003;32333;55.844;-3.210;2022-11-20T02:39:28;0;0;
45871;PMS5003;32333;55.844;-3.210;2022-11-20T02:41:57;0;0;
45871;PMS5003;32333;55.844;-3.210;2022-11-20T02:44:35;0;0;
45871;PMS5003;32333;55.844;-3.210;2022-11-20T05:48:12;0;0;
45871;PMS5003;32333;55.844;-3.210;2022-11-20T05:50:42;0;0;
45871;PMS5003;32333;55.844;-3.210;2022-11-20T05:53:09;0;0;
45871;PMS5003;32333;55.844;-3.210;2022-11-20T05:55:36;0;0;
45871;PMS5003;32333;55.844;-3.210;2022-11-20T05:58:05;0;0;
45871;PMS5003;32333;55.844;-3.210;2022-11-20T06:00:33;0;0;
45871;PMS5003;32333;55.844;-3.210;2022-11-20T06:03:02;0;0;
45871;PMS5003;32333;55.844;-3.210;2022-11-20T06:05:43;0;0;
45871;PMS5003;32333;55.844;-3.210;2022-11-20T06:08:11;0;0;
45871;PMS5003;32333;55.844;-3.210;2022-11-20T06:10:39;0;0;
45871;PMS5003;32333;55.844;-3.210;2022-11-20T06:14:35;0;0;
45871;PMS5003;32333;55.844;-3.210;2022-11-20T06:17:05;0;0;
45871;PMS5003;32333;55.844;-3.210;2022-11-20T06:19:34;0;0;
45871;PMS5003;32333;55.844;-3.210;2022-11-20T06:22:01;0;0;
45871;PMS5003;32333;55.844;-3.210;2022-11-20T06:24:29;0;0;
45871;PMS5003;32333;55.844;-3.210;2022-11-20T06:27:01;0;0;
45871;PMS5003;32333;55.844;-3.210;2022-11-20T06:29:29;0;0;
45871;PMS5003;32333;55.844;-3.210;2022-11-20T06:31:58;0;0;
45871;PMS5003;32333;55.844;-3.210;2022-11-20T06:34:29;0;0;
45871;PMS5003;32333;55.844;-3.210;2022-11-20T06:36:57;0;0;
45871;PMS5003;32333;55.844;-3.210;2022-11-20T06:39:26;0;0;
45871;PMS5003;32333;55.844;-3.210;2022-11-20T06:41:54;0;0;
45871;PMS5003;32333;55.844;-3.210;2022-11-20T06:55:42;0;0;
45871;PMS5003;32333;55.844;-3.210;2022-11-20T06:58:10;0;0;
45871;PMS5003;32333;55.844;-3.210;2022-11-20T07:00:41;0;0;
45871;PMS5003;32333;55.844;-3.210;2022-11-20T07:03:11;0;0;
45871;PMS5003;32333;55.844;-3.210;2022-11-20T07:05:41;0;0;
45871;PMS5003;32333;55.844;-3.210;2022-11-20T07:08:11;0;0;
45871;PMS5003;32333;55.844;-3.210;2022-11-20T07:10:40;0;0;
45871;PMS5003;32333;55.844;-3.210;2022-11-20T07:14:35;0;0;
45871;PMS5003;32333;55.844;-3.210;2022-11-20T07:17:02;0;0;
45871;PMS5003;32333;55.844;-3.210;2022-11-20T07:19:30;0;0;
45871;PMS5003;32333;55.844;-3.210;2022-11-20T07:21:58;0;0;
45871;PMS5003;32333;55.844;-3.210;2022-11-20T07:24:26;0;0;
45871;PMS5003;32333;55.844;-3.210;2022-11-20T07:26:54;0;0;
45871;PMS5003;32333;55.844;-3.210;2022-11-20T07:29:22;0;0;
45871;PMS5003;32333;55.844;-3.210;2022-11-20T07:31:50;0;0;
45871;PMS5003;32333;55.844;-3.210;2022-11-20T07:34:22;0;0;
45871;PMS5003;32333;55.844;-3.210;2022-11-20T07:36:49;0;0;
45871;PMS5003;32333;55.844;-3.210;2022-11-20T07:39:17;0;0;
45871;PMS5003;32333;55.844;-3.210;2022-11-20T07:41:45;0;0;
45871;PMS5003;32333;55.844;-3.210;2022-11-20T07:44:35;0;0;
45871;PMS5003;32333;55.844;-3.210;2022-11-20T07:47:02;0;0;
45871;PMS5003;32333;55.844;-3.210;2022-11-20T07:49:30;0;0;
45871;PMS5003;32333;55.844;-3.210;2022-11-20T07:51:57;0;0;
45871;PMS5003;32333;55.844;-3.210;2022-11-20T07:54:25;0;0;
45871;PMS5003;32333;55.844;-3.210;2022-11-20T07:56:52;0;0;
45871;PMS5003;32333;55.844;-3.210;2022-11-20T07:59:21;4;4;
45871;PMS5003;32333;55.844;-3.210;2022-11-20T08:01:50;0;0;
45871;PMS5003;32333;55.844;-3.210;2022-11-20T08:04:18;0;0;
45871;PMS5003;32333;55.844;-3.210;2022-11-20T08:06:46;0;0;
45871;PMS5003;32333;55.844;-3.210;2022-11-20T08:09:14;0;0;
45871;PMS5003;32333;55.844;-3.210;2022-11-20T08:11:41;0;0;
45871;PMS5003;32333;55.844;-3.210;2022-11-20T08:14:35;0;0;
45871;PMS5003;32333;55.844;-3.210;2022-11-20T08:17:03;0;0;
45871;PMS5003;32333;55.844;-3.210;2022-11-20T08:19:31;0;0;
45871;PMS5003;32333;55.844;-3.210;2022-11-20T08:22:00;0;0;
45871;PMS5003;32333;55.844;-3.210;2022-11-20T08:24:27;0;0;
45871;PMS5003;32333;55.844;-3.210;2022-11-20T08:26:57;0;0;
45871;PMS5003;32333;55.844;-3.210;2022-11-20T08:29:25;0;0;
45871;PMS5003;32333;55.844;-3.210;2022-11-20T08:31:53;0;0;
45871;PMS5003;32333;55.844;-3.210;2022-11-20T08:34:28;0;0;
45871;PMS5003;32333;55.844;-3.210;2022-11-20T08:36:57;0;0;
45871;PMS5003;32333;55.844;-3.210;2022-11-20T08:39:28;0;0;
45871;PMS5003;32333;55.844;-3.210;2022-11-20T08:41:59;0;0;
45871;PMS5003;32333;55.844;-3.210;2022-11-20T08:44:35;0;0;
45871;PMS5003;32333;55.844;-3.210;2022-11-20T08:47:04;0;0;
45871;PMS5003;32333;55.844;-3.210;2022-11-20T08:49:34;0;0;
45871;PMS5003;32333;55.844;-3.210;2022-11-20T08:52:04;0;0;
45871;PMS5003;32333;55.844;-3.210;2022-11-20T08:54:33;0;0;
45871;PMS5003;32333;55.844;-3.210;2022-11-20T08:57:01;0;0;
45871;PMS5003;32333;55.844;-3.210;2022-11-20T08:59:31;0;0;
45871;PMS5003;32333;55.844;-3.210;2022-11-20T09:02:00;0;0;
45871;PMS5003;32333;55.844;-3.210;2022-11-20T09:04:31;0;0;
45871;PMS5003;32333;55.844;-3.210;2022-11-20T09:07:00;0;0;
45871;PMS5003;32333;55.844;-3.210;2022-11-20T09:09:27;0;0;
45871;PMS5003;32333;55.844;-3.210;2022-11-20T09:11:56;0;0;
45871;PMS5003;32333;55.844;-3.210;2022-11-20T09:14:59;0;0;
45871;PMS5003;32333;55.844;-3.210;2022-11-20T09:17:30;0;0;
45871;PMS5003;32333;55.844;-3.210;2022-11-20T09:19:58;0;0;
45871;PMS5003;32333;55.844;-3.210;2022-11-20T09:22:25;0;0;
45871;PMS5003;32333;55.844;-3.210;2022-11-20T09:24:53;0;0;
45871;PMS5003;32333;55.844;-3.210;2022-11-20T09:27:27;0;0;
45871;PMS5003;32333;55.844;-3.210;2022-11-20T09:29:57;0;0;
45871;PMS5003;32333;55.844;-3.210;2022-11-20T09:32:50;0;0;
45871;PMS5003;32333;55.844;-3.210;2022-11-20T09:35:18;0;0;
45871;PMS5003;32333;55.844;-3.210;2022-11-20T09:37:46;0;0;
45871;PMS5003;32333;55.844;-3.210;2022-11-20T09:40:19;0;0;
45871;PMS5003;32333;55.844;-3.210;2022-11-20T09:44:46;0;0;
45871;PMS5003;32333;55.844;-3.210;2022-11-20T09:47:28;0;0;
45871;PMS5003;32333;55.844;-3.210;2022-11-20T09:50:15;0;0;
45871;PMS5003;32333;55.844;-3.210;2022-11-20T09:57:54;0;0;
45871;PMS5003;32333;55.844;-3.210;2022-11-20T10:00:32;0;0;
45871;PMS5003;32333;55.844;-3.210;2022-11-20T10:05:38;0;0;
45871;PMS5003;32333;55.844;-3.210;2022-11-20T10:08:12;0;0;
45871;PMS5003;32333;55.844;-3.210;2022-11-20T10:10:49;0;0;
45871;PMS5003;32333;55.844;-3.210;2022-11-20T10:14:38;0;0;
45871;PMS5003;32333;55.844;-3.210;2022-11-20T10:19:01;0;0;
45871;PMS5003;32333;55.844;-3.210;2022-11-20T10:21:38;0;0;
45871;PMS5003;32333;55.844;-3.210;2022-11-20T10:24:24;0;0;
45871;PMS5003;32333;55.844;-3.210;2022-11-20T10:27:03;0;0;
45871;PMS5003;32333;55.844;-3.210;2022-11-20T10:29:40;0;0;
45871;PMS5003;32333;55.844;-3.210;2022-11-20T10:32:18;0;0;
45871;PMS5003;32333;55.844;-3.210;2022-11-20T10:34:52;0;0;
45871;PMS5003;32333;55.844;-3.210;2022-11-20T10:37:28;0;0;
45871;PMS5003;32333;55.844;-3.210;2022-11-20T10:39:58;0;0;
45871;PMS5003;32333;55.844;-3.210;2022-11-20T10:44:38;0;0;
45871;PMS5003;32333;55.844;-3.210;2022-11-20T10:47:12;0;0;
45871;PMS5003;32333;55.844;-3.210;2022-11-20T10:50:13;0;0;
45871;PMS5003;32333;55.844;-3.210;2022-11-20T10:52:49;0;0;
45871;PMS5003;32333;55.844;-3.210;2022-11-20T10:56:07;0;0;
45871;PMS5003;32333;55.844;-3.210;2022-11-20T10:58:45;0;0;
45871;PMS5003;32333;55.844;-3.210;2022-11-20T11:01:29;0;0;
45871;PMS5003;32333;55.844;-3.210;2022-11-20T11:07:10;0;0;
45871;PMS5003;32333;55.844;-3.210;2022-11-20T11:09:46;0;0;
45871;PMS5003;32333;55.844;-3.210;2022-11-20T11:14:51;1;1;
45871;PMS5003;32333;55.844;-3.210;2022-11-20T11:17:26;0;0;
45871;PMS5003;32333;55.844;-3.210;2022-11-20T11:20:15;0;0;
45871;PMS5003;32333;55.844;-3.210;2022-11-20T11:22:44;0;0;
45871;PMS5003;32333;55.844;-3.210;2022-11-20T11:25:31;0;0;
45871;PMS5003;32333;55.844;-3.210;2022-11-20T11:28:00;0;0;
45871;PMS5003;32333;55.844;-3.210;2022-11-20T11:30:46;0;0;
45871;PMS5003;32333;55.844;-3.210;2022-11-20T11:33:20;0;0;
45871;PMS5003;32333;55.844;-3.210;2022-11-20T11:35:56;0;0;
45871;PMS5003;32333;55.844;-3.210;2022-11-20T11:38:28;0;0;
45871;PMS5003;32333;55.844;-3.210;2022-11-20T11:41:01;0;0;
45871;PMS5003;32333;55.844;-3.210;2022-11-20T11:44:36;0;0;
45871;PMS5003;32333;55.844;-3.210;2022-11-20T11:47:04;0;0;
45871;PMS5003;32333;55.844;-3.210;2022-11-20T11:49:39;0;0;
45871;PMS5003;32333;55.844;-3.210;2022-11-20T11:52:10;0;0;
45871;PMS5003;32333;55.844;-3.210;2022-11-20T11:54:45;0;0;
45871;PMS5003;32333;55.844;-3.210;2022-11-20T11:57:22;0;0;
45871;PMS5003;32333;55.844;-3.210;2022-11-20T12:00:49;0;0;
45871;PMS5003;32333;55.844;-3.210;2022-11-20T12:03:24;0;0;
45871;PMS5003;32333;55.844;-3.210;2022-11-20T12:06:01;0;0;
45871;PMS5003;32333;55.844;-3.210;2022-11-20T12:08:38;0;0;
45871;PMS5003;32333;55.844;-3.210;2022-11-20T12:11:12;0;0;
45871;PMS5003;32333;55.844;-3.210;2022-11-20T12:14:37;0;0;
45871;PMS5003;32333;55.844;-3.210;2022-11-20T12:17:07;0;0;
45871;PMS5003;32333;55.844;-3.210;2022-11-20T12:19:42;0;0;
45871;PMS5003;32333;55.844;-3.210;2022-11-20T12:22:13;0;0;
45871;PMS5003;32333;55.844;-3.210;2022-11-20T12:24:53;0;0;
45871;PMS5003;32333;55.844;-3.210;2022-11-20T12:27:32;0;0;
45871;PMS5003;32333;55.844;-3.210;2022-11-20T12:31:22;0;0;
45871;PMS5003;32333;55.844;-3.210;2022-11-20T12:35:47;0;0;
45871;PMS5003;32333;55.844;-3.210;2022-11-20T12:38:43;0;0;
45871;PMS5003;32333;55.844;-3.210;2022-11-20T12:41:45;0;0;
45871;PMS5003;32333;55.844;-3.210;2022-11-20T12:44:56;0;0;
45871;PMS5003;32333;55.844;-3.210;2022-11-20T12:47:33;0;0;
45871;PMS5003;32333;55.844;-3.210;2022-11-20T12:50:19;0;0;
45871;PMS5003;32333;55.844;-3.210;2022-11-20T12:53:01;0;0;
45871;PMS5003;32333;55.844;-3.210;2022-11-20T12:55:34;0;0;
45871;PMS5003;32333;55.844;-3.210;2022-11-20T12:58:10;0;0;
45871;PMS5003;32333;55.844;-3.210;2022-11-20T13:00:50;0;0;
45871;PMS5003;32333;55.844;-3.210;2022-11-20T13:03:29;0;0;
45871;PMS5003;32333;55.844;-3.210;2022-11-20T13:06:14;0;0;
45871;PMS5003;32333;55.844;-3.210;2022-11-20T13:08:48;1;0;
45871;PMS5003;32333;55.844;-3.210;2022-11-20T13:11:27;0;0;
45871;PMS5003;32333;55.844;-3.210;2022-11-20T13:39:27;0;0;
45871;PMS5003;32333;55.844;-3.210;2022-11-20T13:44:44;0;0;
45871;PMS5003;32333;55.844;-3.210;2022-11-20T13:47:21;0;0;
45871;PMS5003;32333;55.844;-3.210;2022-11-20T13:49:53;0;0;
45871;PMS5003;32333;55.844;-3.210;2022-11-20T13:52:28;0;0;
45871;PMS5003;32333;55.844;-3.210;2022-11-20T13:55:12;0;0;
45871;PMS5003;32333;55.844;-3.210;2022-11-20T13:58:24;0;0;
45871;PMS5003;32333;55.844;-3.210;2022-11-20T14:01:08;0;0;
45871;PMS5003;32333;55.844;-3.210;2022-11-20T14:03:37;7;7;
45871;PMS5003;32333;55.844;-3.210;2022-11-20T14:06:11;0;0;
45871;PMS5003;32333;55.844;-3.210;2022-11-20T14:08:48;0;0;
45871;PMS5003;32333;55.844;-3.210;2022-11-20T14:11:17;0;0;
45871;PMS5003;32333;55.844;-3.210;2022-11-20T14:14:46;0;0;
45871;PMS5003;32333;55.844;-3.210;2022-11-20T14:17:19;0;0;
45871;PMS5003;32333;55.844;-3.210;2022-11-20T14:19:50;0;0;
45871;PMS5003;32333;55.844;-3.210;2022-11-20T14:22:21;0;0;
45871;PMS5003;32333;55.844;-3.210;2022-11-20T14:25:01;0;0;
45871;PMS5003;32333;55.844;-3.210;2022-11-20T14:27:33;0;0;
45871;PMS5003;32333;55.844;-3.210;2022-11-20T14:30:05;0;0;
45871;PMS5003;32333;55.844;-3.210;2022-11-20T14:32:40;0;0;
45871;PMS5003;32333;55.844;-3.210;2022-11-20T14:35:14;0;0;
45871;PMS5003;32333;55.844;-3.210;2022-11-20T14:37:47;0;0;
45871;PMS5003;32333;55.844;-3.210;2022-11-20T14:40:32;0;0;
45871;PMS5003;32333;55.844;-3.210;2022-11-20T14:44:34;0;0;
45871;PMS5003;32333;55.844;-3.210;2022-11-20T14:47:28;0;0;
45871;PMS5003;32333;55.844;-3.210;2022-11-20T14:50:07;0;0;
45871;PMS5003;32333;55.844;-3.210;2022-11-20T14:53:02;3;3;
45871;PMS5003;32333;55.844;-3.210;2022-11-20T14:55:34;0;0;
45871;PMS5003;32333;55.844;-3.210;2022-11-20T14:59:04;0;0;
45871;PMS5003;32333;55.844;-3.210;2022-11-20T15:01:32;0;0;
45871;PMS5003;32333;55.844;-3.210;2022-11-20T15:08:51;0;0;
45871;PMS5003;32333;55.844;-3.210;2022-11-20T15:11:25;0;0;
45871;PMS5003;32333;55.844;-3.210;2022-11-20T15:14:34;0;0;
45871;PMS5003;32333;55.844;-3.210;2022-11-20T15:17:04;0;0;
45871;PMS5003;32333;55.844;-3.210;2022-11-20T15:19:34;0;0;
45871;PMS5003;32333;55.844;-3.210;2022-11-20T15:22:02;0;0;
45871;PMS5003;32333;55.844;-3.210;2022-11-20T15:24:36;0;0;
45871;PMS5003;32333;55.844;-3.210;2022-11-20T15:27:03;0;0;
45871;PMS5003;32333;55.844;-3.210;2022-11-20T15:29:31;0;0;
45871;PMS5003;32333;55.844;-3.210;2022-11-20T15:31:59;0;0;
45871;PMS5003;32333;55.844;-3.210;2022-11-20T15:34:27;0;0;
45871;PMS5003;32333;55.844;-3.210;2022-11-20T15:36:56;0;0;
45871;PMS5003;32333;55.844;-3.210;2022-11-20T15:39:26;0;0;
45871;PMS5003;32333;55.844;-3.210;2022-11-20T15:41:56;0;0;
45871;PMS5003;32333;55.844;-3.210;2022-11-20T15:44:37;0;0;
45871;PMS5003;32333;55.844;-3.210;2022-11-20T15:47:10;0;0;
45871;PMS5003;32333;55.844;-3.210;2022-11-20T15:56:48;5;3;
45871;PMS5003;32333;55.844;-3.210;2022-11-20T15:59:18;6;6;
45871;PMS5003;32333;55.844;-3.210;2022-11-20T16:02:02;3;3;
45871;PMS5003;32333;55.844;-3.210;2022-11-20T16:04:48;5;5;
45871;PMS5003;32333;55.844;-3.210;2022-11-20T16:07:19;2;1;
45871;PMS5003;32333;55.844;-3.210;2022-11-20T16:10:02;2;2;
45871;PMS5003;32333;55.844;-3.210;2022-11-20T16:14:34;3;3;
45871;PMS5003;32333;55.844;-3.210;2022-11-20T16:17:05;2;1;
45871;PMS5003;32333;55.844;-3.210;2022-11-20T16:19:34;5;3;
45871;PMS5003;32333;55.844;-3.210;2022-11-20T16:22:09;5;5;
45871;PMS5003;32333;55.844;-3.210;2022-11-20T16:24:39;5;5;
45871;PMS5003;32333;55.844;-3.210;2022-11-20T16:27:14;6;5;
45871;PMS5003;32333;55.844;-3.210;2022-11-20T16:29:49;5;5;
45871;PMS5003;32333;55.844;-3.210;2022-11-20T16:32:53;9;7;
45871;PMS5003;32333;55.844;-3.210;2022-11-20T16:36:33;10;10;
45871;PMS5003;32333;55.844;-3.210;2022-11-20T16:39:09;6;6;
45871;PMS5003;32333;55.844;-3.210;2022-11-20T16:41:38;9;7;
45871;PMS5003;32333;55.844;-3.210;2022-11-20T16:44:34;9;8;
45871;PMS5003;32333;55.844;-3.210;2022-11-20T16:47:02;7;6;
45871;PMS5003;32333;55.844;-3.210;2022-11-20T16:49:30;6;6;
45871;PMS5003;32333;55.844;-3.210;2022-11-20T17:01:46;23;20;
45871;PMS5003;32333;55.844;-3.210;2022-11-20T17:04:14;16;14;
45871;PMS5003;32333;55.844;-3.210;2022-11-20T17:06:42;17;14;
45871;PMS5003;32333;55.844;-3.210;2022-11-20T17:09:11;17;15;
45871;PMS5003;32333;55.844;-3.210;2022-11-20T17:11:41;14;13;
45871;PMS5003;32333;55.844;-3.210;2022-11-20T17:14:34;17;12;
45871;PMS5003;32333;55.844;-3.210;2022-11-20T17:17:02;18;17;
45871;PMS5003;32333;55.844;-3.210;2022-11-20T17:19:30;12;11;
45871;PMS5003;32333;55.844;-3.210;2022-11-20T17:21:59;14;13;
45871;PMS5003;32333;55.844;-3.210;2022-11-20T17:24:27;13;11;
45871;PMS5003;32333;55.844;-3.210;2022-11-20T17:26:55;16;14;
45871;PMS5003;32333;55.844;-3.210;2022-11-20T17:29:23;12;12;
45871;PMS5003;32333;55.844;-3.210;2022-11-20T17:31:52;15;14;
45871;PMS5003;32333;55.844;-3.210;2022-11-20T17:34:22;11;11;
45871;PMS5003;32333;55.844;-3.210;2022-11-20T17:36:50;12;12;
45871;PMS5003;32333;55.844;-3.210;2022-11-20T17:39:17;9;8;
45871;PMS5003;32333;55.844;-3.210;2022-11-20T17:41:46;9;8;
45871;PMS5003;32333;55.844;-3.210;2022-11-20T17:44:33;11;10;
45871;PMS5003;32333;55.844;-3.210;2022-11-20T17:47:01;18;16;
45871;PMS5003;32333;55.844;-3.210;2022-11-20T17:49:29;17;17;
45871;PMS5003;32333;55.844;-3.210;2022-11-20T17:51:57;15;10;
45871;PMS5003;32333;55.844;-3.210;2022-11-20T17:54:26;9;9;
45871;PMS5003;32333;55.844;-3.210;2022-11-20T17:56:55;12;12;
45871;PMS5003;32333;55.844;-3.210;2022-11-20T17:59:23;9;8;
45871;PMS5003;32333;55.844;-3.210;2022-11-20T18:01:51;14;11;
45871;PMS5003;32333;55.844;-3.210;2022-11-20T18:04:19;15;11;
45871;PMS5003;32333;55.844;-3.210;2022-11-20T18:06:47;14;9;
45871;PMS5003;32333;55.844;-3.210;2022-11-20T18:09:14;14;12;
45871;PMS5003;32333;55.844;-3.210;2022-11-20T18:11:44;10;7;
45871;PMS5003;32333;55.844;-3.210;2022-11-20T18:14:41;11;11;
45871;PMS5003;32333;55.844;-3.210;2022-11-20T18:17:15;12;11;
45871;PMS5003;32333;55.844;-3.210;2022-11-20T18:19:44;15;11;
45871;PMS5003;32333;55.844;-3.210;2022-11-20T18:22:14;14;11;
45871;PMS5003;32333;55.844;-3.210;2022-11-20T18:24:43;12;12;
45871;PMS5003;32333;55.844;-3.210;2022-11-20T18:27:13;14;12;
45871;PMS5003;32333;55.844;-3.210;2022-11-20T18:29:41;18;15;
45871;PMS5003;32333;55.844;-3.210;2022-11-20T18:32:10;18;11;
45871;PMS5003;32333;55.844;-3.210;2022-11-20T18:34:39;11;9;
45871;PMS5003;32333;55.844;-3.210;2022-11-20T18:37:07;13;13;
45871;PMS5003;32333;55.844;-3.210;2022-11-20T18:39:35;7;6;
45871;PMS5003;32333;55.844;-3.210;2022-11-20T18:44:34;11;10;
45871;PMS5003;32333;55.844;-3.210;2022-11-20T18:47:02;10;10;
45871;PMS5003;32333;55.844;-3.210;2022-11-20T18:49:31;14;13;
45871;PMS5003;32333;55.844;-3.210;2022-11-20T18:52:01;8;7;
45871;PMS5003;32333;55.844;-3.210;2022-11-20T18:54:29;11;9;
45871;PMS5003;32333;55.844;-3.210;2022-11-20T18:56:57;21;15;
45871;PMS5003;32333;55.844;-3.210;2022-11-20T18:59:25;18;16;
45871;PMS5003;32333;55.844;-3.210;2022-11-20T19:01:53;14;13;
45871;PMS5003;32333;55.844;-3.210;2022-11-20T19:04:20;15;14;
45871;PMS5003;32333;55.844;-3.210;2022-11-20T19:06:48;15;14;
45871;PMS5003;32333;55.844;-3.210;2022-11-20T19:09:16;17;15;
45871;PMS5003;32333;55.844;-3.210;2022-11-20T19:11:44;19;16;
45871;PMS5003;32333;55.844;-3.210;2022-11-20T19:14:35;13;12;
45871;PMS5003;32333;55.844;-3.210;2022-11-20T19:17:04;22;17;
45871;PMS5003;32333;55.844;-3.210;2022-11-20T19:19:32;16;16;
45871;PMS5003;32333;55.844;-3.210;2022-11-20T19:22:00;16;12;
45871;PMS5003;32333;55.844;-3.210;2022-11-20T19:24:34;16;13;
45871;PMS5003;32333;55.844;-3.210;2022-11-20T19:27:03;15;13;
45871;PMS5003;32333;55.844;-3.210;2022-11-20T19:29:31;15;15;
45871;PMS5003;32333;55.844;-3.210;2022-11-20T19:31:59;13;12;
45871;PMS5003;32333;55.844;-3.210;2022-11-20T19:34:27;12;10;
45871;PMS5003;32333;55.844;-3.210;2022-11-20T19:36:55;17;16;
45871;PMS5003;32333;55.844;-3.210;2022-11-20T19:39:23;16;14;
45871;PMS5003;32333;55.844;-3.210;2022-11-20T19:41:52;13;12;
45871;PMS5003;32333;55.844;-3.210;2022-11-20T19:44:34;15;14;
45871;PMS5003;32333;55.844;-3.210;2022-11-20T19:47:02;18;14;
45871;PMS5003;32333;55.844;-3.210;2022-11-20T19:49:29;15;14;
45871;PMS5003;32333;55.844;-3.210;2022-11-20T19:51:57;22;20;
45871;PMS5003;32333;55.844;-3.210;2022-11-20T19:56:17;15;15;
45871;PMS5003;32333;55.844;-3.210;2022-11-20T19:58:51;10;10;
45871;PMS5003;32333;55.844;-3.210;2022-11-20T20:01:24;14;11;
45871;PMS5003;32333;55.844;-3.210;2022-11-20T20:04:41;13;11;
45871;PMS5003;32333;55.844;-3.210;2022-11-20T20:07:10;17;10;
45871;PMS5003;32333;55.844;-3.210;2022-11-20T20:09:52;15;12;
45871;PMS5003;32333;55.844;-3.210;2022-11-20T20:20:56;0;0;
45871;PMS5003;32333;55.844;-3.210;2022-11-20T20:31:05;0;0;
45871;PMS5003;32333;55.844;-3.210;2022-11-20T20:33:35;1;1;
45871;PMS5003;32333;55.844;-3.210;2022-11-20T20:36:05;0;0;
45871;PMS5003;32333;55.844;-3.210;2022-11-20T20:38:34;0;0;
45871;PMS5003;32333;55.844;-3.210;2022-11-20T20:41:04;6;6;
45871;PMS5003;32333;55.844;-3.210;2022-11-20T20:44:35;0;0;
45871;PMS5003;32333;55.844;-3.210;2022-11-20T20:47:04;3;3;
45871;PMS5003;32333;55.844;-3.210;2022-11-20T20:55:17;9;9;
45871;PMS5003;32333;55.844;-3.210;2022-11-20T20:59:37;42;42;
45871;PMS5003;32333;55.844;-3.210;2022-11-20T21:02:08;0;0;
45871;PMS5003;32333;55.844;-3.210;2022-11-20T21:06:17;0;0;
45871;PMS5003;32333;55.844;-3.210;2022-11-20T22:27:51;15;15;
45871;PMS5003;32333;55.844;-3.210;2022-11-20T22:30:26;16;16;
45871;PMS5003;32333;55.844;-3.210;2022-11-20T22:32:53;15;15;
45871;PMS5003;32333;55.844;-3.210;2022-11-20T22:35:21;13;13;
45871;PMS5003;32333;55.844;-3.210;2022-11-20T22:37:49;13;13;
45871;PMS5003;32333;55.844;-3.210;2022-11-20T22:40:20;10;10;
45871;PMS5003;32333;55.844;-3.210;2022-11-20T22:44:36;6;6;
45871;PMS5003;32333;55.844;-3.210;2022-11-20T22:47:03;9;9;
45871;PMS5003;32333;55.844;-3.210;2022-11-20T22:49:31;7;7;
45871;PMS5003;32333;55.844;-3.210;2022-11-20T22:51:59;6;6;
45871;PMS5003;32333;55.844;-3.210;2022-11-20T22:54:27;6;6;
45871;PMS5003;32333;55.844;-3.210;2022-11-20T22:56:55;4;4;
45871;PMS5003;32333;55.844;-3.210;2022-11-20T22:59:22;3;3;
45871;PMS5003;32333;55.844;-3.210;2022-11-20T23:01:51;0;0;
45871;PMS5003;32333;55.844;-3.210;2022-11-20T23:04:18;3;3;
45871;PMS5003;32333;55.844;-3.210;2022-11-20T23:06:46;4;4;
45871;PMS5003;32333;55.844;-3.210;2022-11-20T23:09:13;4;4;
45871;PMS5003;32333;55.844;-3.210;2022-11-20T23:11:41;4;4;
45871;PMS5003;32333;55.844;-3.210;2022-11-20T23:14:35;4;4;
45871;PMS5003;32333;55.844;-3.210;2022-11-20T23:17:03;4;4;
45871;PMS5003;32333;55.844;-3.210;2022-11-20T23:19:31;4;4;
45871;PMS5003;32333;55.844;-3.210;2022-11-20T23:22:00;4;4;
45871;PMS5003;32333;55.844;-3.210;2022-11-20T23:24:28;6;6;
45871;PMS5003;32333;55.844;-3.210;2022-11-20T23:26:56;7;7;
45871;PMS5003;32333;55.844;-3.210;2022-11-20T23:29:25;9;9;
45871;PMS5003;32333;55.844;-3.210;2022-11-20T23:31:52;7;7;
45871;PMS5003;32333;55.844;-3.210;2022-11-20T23:34:21;6;6;
45871;PMS5003;32333;55.844;-3.210;2022-11-20T23:36:49;4;4;
45871;PMS5003;32333;55.844;-3.210;2022-11-20T23:39:19;6;6;
45871;PMS5003;32333;55.844;-3.210;2022-11-20T23:41:46;10;10;
45871;PMS5003;32333;55.844;-3.210;2022-11-20T23:49:42;0;0;
45871;PMS5003;32333;55.844;-3.210;2022-11-20T23:52:10;0;0;
45871;PMS5003;32333;55.844;-3.210;2022-11-20T23:54:38;0;0;
45871;PMS5003;32333;55.844;-3.210;2022-11-20T23:57:06;3;3;
45871;PMS5003;32333;55.844;-3.210;2022-11-20T23:59:34;0;0;
